createdAt,value
2023-05-11T00:01:47.534Z,23.20
2023-05-11T00:04:14.291Z,24.48
2023-05-11T00:06:41.036Z,25.15
2023-05-11T00:09:09.335Z,26.33
2023-05-11T00:11:36.185Z,23.65
2023-05-11T00:14:03.239Z,22.60
2023-05-11T00:16:30.020Z,23.25
2023-05-11T00:18:56.788Z,27.65
2023-05-11T00:21:23.584Z,24.50
2023-05-11T00:23:50.978Z,23.73
2023-05-11T00:26:17.728Z,24.80
2023-05-11T00:28:45.524Z,23.95
2023-05-11T00:31:12.337Z,25.50
2023-05-11T00:33:39.136Z,24.77
2023-05-11T00:36:06.314Z,23.52
2023-05-11T00:38:33.124Z,25.02
2023-05-11T00:40:59.880Z,23.73
2023-05-11T00:43:26.599Z,26.48
2023-05-11T00:45:53.608Z,26.77
2023-05-11T00:48:20.399Z,27.38
2023-05-11T00:50:47.810Z,30.30
2023-05-11T00:53:14.821Z,29.52
2023-05-11T00:55:42.266Z,30.92
2023-05-11T00:58:08.960Z,27.58
2023-05-11T01:00:36.682Z,27.75
2023-05-11T01:03:03.794Z,30.75
2023-05-11T01:05:41.603Z,32.83
2023-05-11T01:08:40.304Z,31.45
2023-05-11T01:11:21.504Z,31.13
2023-05-11T01:14:03.836Z,28.08
2023-05-11T01:16:35.066Z,30.98
2023-05-11T01:19:19.249Z,30.52
2023-05-11T01:21:50.638Z,34.65
2023-05-11T01:24:32.245Z,33.10
2023-05-11T01:27:02.131Z,33.90
2023-05-11T01:29:50.530Z,32.97
2023-05-11T01:32:20.684Z,29.45
2023-05-11T01:34:51.158Z,33.10
2023-05-11T01:37:22.983Z,33.50
2023-05-11T01:39:54.044Z,33.30
2023-05-11T01:42:50.713Z,33.08
2023-05-11T01:45:18.993Z,33.45
2023-05-11T01:47:50.245Z,31.95
2023-05-11T01:50:24.429Z,33.38
2023-05-11T01:52:52.267Z,36.92
2023-05-11T01:55:22.252Z,33.67
2023-05-11T01:57:53.187Z,32.40
2023-05-11T02:00:20.785Z,34.20
2023-05-11T02:02:49.049Z,36.40
2023-05-11T02:05:20.724Z,36.85
2023-05-11T02:10:18.520Z,34.85
2023-05-11T02:12:46.794Z,35.13
2023-05-11T02:15:14.053Z,37.45
2023-05-11T02:17:42.171Z,34.83
2023-05-11T02:20:11.198Z,34.42
2023-05-11T02:22:38.502Z,30.10
2023-05-11T02:25:06.901Z,37.42
2023-05-11T02:27:35.915Z,34.78
2023-05-11T02:30:04.604Z,34.78
2023-05-11T02:32:35.064Z,36.70
2023-05-11T02:35:07.696Z,36.35
2023-05-11T02:37:40.510Z,36.47
2023-05-11T02:40:16.380Z,36.53
2023-05-11T02:42:47.084Z,37.85
2023-05-11T02:45:17.067Z,42.33
2023-05-11T02:47:48.013Z,44.17
2023-05-11T02:50:16.974Z,41.63
2023-05-11T02:52:46.754Z,43.63
2023-05-11T02:55:16.990Z,37.70
2023-05-11T02:57:45.346Z,42.75
2023-05-11T03:00:13.375Z,38.33
2023-05-11T03:02:40.154Z,41.45
2023-05-11T03:05:07.092Z,40.38
2023-05-11T03:07:34.163Z,38.97
2023-05-11T03:10:02.312Z,38.38
2023-05-11T03:12:32.760Z,43.15
2023-05-11T03:15:00.973Z,43.03
2023-05-11T03:17:29.560Z,40.45
2023-05-11T03:19:58.153Z,37.70
2023-05-11T03:22:26.471Z,40.17
2023-05-11T03:24:53.695Z,41.75
2023-05-11T03:27:21.074Z,39.83
2023-05-11T03:29:50.061Z,40.38
2023-05-11T03:32:17.031Z,41.95
2023-05-11T03:34:44.060Z,41.92
2023-05-11T03:37:13.323Z,41.13
2023-05-11T03:39:43.785Z,41.60
2023-05-11T03:42:13.952Z,37.67
2023-05-11T03:44:43.927Z,42.53
2023-05-11T03:47:11.347Z,42.67
2023-05-11T03:49:38.841Z,43.03
2023-05-11T03:52:06.523Z,40.47
2023-05-11T03:54:33.325Z,42.75
2023-05-11T03:57:00.205Z,39.60
2023-05-11T03:59:26.946Z,38.33
2023-05-11T04:01:54.072Z,41.58
2023-05-11T04:04:27.798Z,45.33
2023-05-11T04:06:54.586Z,48.03
2023-05-11T04:09:21.322Z,43.65
2023-05-11T04:11:48.015Z,45.70
2023-05-11T04:14:14.845Z,40.00
2023-05-11T04:16:41.661Z,41.80
2023-05-11T04:19:08.467Z,44.78
2023-05-11T04:21:35.882Z,40.72
2023-05-11T04:24:02.859Z,45.35
2023-05-11T04:26:29.660Z,44.63
2023-05-11T04:28:56.433Z,43.78
2023-05-11T04:31:23.259Z,45.58
2023-05-11T04:33:50.072Z,47.28
2023-05-11T04:36:16.807Z,42.95
2023-05-11T04:38:43.552Z,51.17
2023-05-11T04:41:10.242Z,48.13
2023-05-11T04:43:36.991Z,44.97
2023-05-11T04:46:03.767Z,44.20
2023-05-11T04:48:30.509Z,47.53
2023-05-11T04:50:57.488Z,45.83
2023-05-11T04:53:24.374Z,48.08
2023-05-11T04:55:51.323Z,50.08
2023-05-11T04:58:18.043Z,47.95
2023-05-11T05:00:44.787Z,52.47
2023-05-11T05:03:11.731Z,45.42
2023-05-11T05:05:38.505Z,47.72
2023-05-11T05:08:05.571Z,47.50
2023-05-11T05:10:32.334Z,42.30
2023-05-11T05:12:59.091Z,49.90
2023-05-11T05:15:25.911Z,44.80
2023-05-11T05:17:52.841Z,46.05
2023-05-11T05:20:20.019Z,48.05
2023-05-11T05:22:46.965Z,53.15
2023-05-11T05:25:13.702Z,49.90
2023-05-11T05:27:40.506Z,45.78
2023-05-11T05:30:07.825Z,45.10
2023-05-11T05:32:34.547Z,50.55
2023-05-11T05:35:01.300Z,51.25
2023-05-11T05:37:27.981Z,49.15
2023-05-11T05:39:54.746Z,50.10
2023-05-11T05:42:22.424Z,50.22
2023-05-11T05:44:49.517Z,52.70
2023-05-11T05:47:16.630Z,48.05
2023-05-11T05:49:43.449Z,47.53
2023-05-11T05:52:10.498Z,47.50
2023-05-11T05:54:37.234Z,52.30
2023-05-11T05:57:04.094Z,53.28
2023-05-11T05:59:30.771Z,47.90
2023-05-11T06:01:57.483Z,48.28
2023-05-11T06:04:24.494Z,49.80
2023-05-11T06:06:51.385Z,53.75
2023-05-11T06:09:18.169Z,48.97
2023-05-11T06:11:44.905Z,48.08
2023-05-11T06:14:11.589Z,48.55
2023-05-11T06:16:38.464Z,46.58
2023-05-11T06:19:05.392Z,46.55
2023-05-11T06:21:32.422Z,50.53
2023-05-11T06:23:59.150Z,50.85
2023-05-11T06:26:25.924Z,59.20
2023-05-11T06:28:52.786Z,55.28
2023-05-11T06:31:19.987Z,60.33
2023-05-11T06:33:46.818Z,52.15
2023-05-11T06:36:13.521Z,56.42
2023-05-11T06:38:40.316Z,50.92
2023-05-11T06:41:07.664Z,50.65
2023-05-11T06:43:34.375Z,55.35
2023-05-11T06:46:01.860Z,58.00
2023-05-11T06:48:29.934Z,53.80
2023-05-11T06:50:57.391Z,56.88
2023-05-11T06:53:24.146Z,50.40
2023-05-11T06:55:50.953Z,55.05
2023-05-11T06:58:20.465Z,58.13
2023-05-11T07:00:47.435Z,52.25
2023-05-11T07:03:14.230Z,60.00
2023-05-11T07:05:41.190Z,57.22
2023-05-11T07:08:08.041Z,58.72
2023-05-11T07:10:34.964Z,62.40
2023-05-11T07:13:01.694Z,56.33
2023-05-11T07:15:28.468Z,55.22
2023-05-11T07:17:55.338Z,56.40
2023-05-11T07:20:22.162Z,54.75
2023-05-11T07:22:49.017Z,54.17
2023-05-11T07:25:15.810Z,57.28
2023-05-11T07:27:42.755Z,60.25
2023-05-11T07:30:09.949Z,60.33
2023-05-11T07:32:36.923Z,60.72
2023-05-11T07:35:03.923Z,62.10
2023-05-11T07:37:30.682Z,56.83
2023-05-11T07:39:57.541Z,58.05
2023-05-11T07:42:24.300Z,60.05
2023-05-11T07:44:51.006Z,55.83
2023-05-11T07:47:20.703Z,57.05
2023-05-11T07:49:48.640Z,58.83
2023-05-11T07:52:15.387Z,57.30
2023-05-11T07:54:42.214Z,50.75
2023-05-11T07:57:11.396Z,46.05
2023-05-11T07:59:38.433Z,45.08
2023-05-11T08:02:08.522Z,44.53
2023-05-11T08:04:36.480Z,43.30
2023-05-11T08:07:04.332Z,44.65
2023-05-11T08:09:32.214Z,41.80
2023-05-11T08:12:01.591Z,42.22
2023-05-11T08:14:28.559Z,25.73
2023-05-11T08:16:55.408Z,28.30
2023-05-11T08:19:22.207Z,30.13
2023-05-11T08:21:48.946Z,30.08
2023-05-11T08:24:15.740Z,22.60
2023-05-11T08:26:42.913Z,23.30
2023-05-11T08:29:11.224Z,23.70
2023-05-11T08:31:38.390Z,22.77
2023-05-11T08:34:15.780Z,20.80
2023-05-11T08:36:46.864Z,20.40
2023-05-11T08:39:13.734Z,17.40
2023-05-11T08:41:40.500Z,19.05
2023-05-11T08:44:08.089Z,25.63
2023-05-11T08:46:36.703Z,26.15
2023-05-11T08:49:03.497Z,24.83
2023-05-11T08:51:30.312Z,24.48
2023-05-11T08:53:58.758Z,27.40
2023-05-11T08:56:27.667Z,25.45
2023-05-11T08:58:57.996Z,29.23
2023-05-11T09:01:29.216Z,27.70
2023-05-11T09:03:58.208Z,26.90
2023-05-11T09:06:26.867Z,27.73
2023-05-11T09:08:54.272Z,24.42
2023-05-11T09:11:22.887Z,26.52
2023-05-11T09:13:50.055Z,26.95
2023-05-11T09:16:35.507Z,27.27
2023-05-11T09:19:03.901Z,26.75
2023-05-11T09:21:31.902Z,23.13
2023-05-11T09:23:59.269Z,24.67
2023-05-11T09:26:28.483Z,25.55
2023-05-11T09:31:42.857Z,23.02
2023-05-11T09:34:15.798Z,25.00
2023-05-11T09:36:50.616Z,24.90
2023-05-11T09:39:35.130Z,27.77
2023-05-11T09:42:17.495Z,23.52
2023-05-11T09:44:47.162Z,22.80
2023-05-11T09:47:17.941Z,23.88
2023-05-11T09:49:46.583Z,23.77
2023-05-11T09:52:15.242Z,27.77
2023-05-11T09:54:43.929Z,27.15
2023-05-11T09:57:28.499Z,32.08
2023-05-11T09:59:56.710Z,33.63
2023-05-11T10:02:26.298Z,31.98
2023-05-11T10:04:54.790Z,32.17
2023-05-11T10:07:24.529Z,33.92
2023-05-11T10:09:54.047Z,37.45
2023-05-11T10:12:23.361Z,35.63
2023-05-11T10:14:52.658Z,34.75
2023-05-11T10:17:20.457Z,36.00
2023-05-11T10:19:48.981Z,34.33
2023-05-11T10:22:17.752Z,29.48
2023-05-11T10:24:44.702Z,35.00
2023-05-11T10:27:12.795Z,29.27
2023-05-11T10:29:39.891Z,26.60
2023-05-11T10:32:08.203Z,25.13
2023-05-11T10:34:35.380Z,27.88
2023-05-11T10:37:02.735Z,28.92
2023-05-11T10:39:30.556Z,28.75
2023-05-11T10:42:24.705Z,32.95
2023-05-11T10:45:12.523Z,31.98
2023-05-11T10:47:42.275Z,33.60
2023-05-11T10:50:14.874Z,31.35
2023-05-11T10:53:18.893Z,30.17
2023-05-11T10:56:16.004Z,26.67
2023-05-11T10:59:17.181Z,20.13
2023-05-11T11:01:45.514Z,23.92
2023-05-11T11:04:13.617Z,25.10
2023-05-11T11:06:42.549Z,31.65
2023-05-11T11:09:16.551Z,26.13
2023-05-11T11:11:47.969Z,24.83
2023-05-11T11:14:16.426Z,24.92
2023-05-11T11:17:22.236Z,26.25
2023-05-11T11:19:49.058Z,25.92
2023-05-11T11:22:34.566Z,23.88
2023-05-11T11:25:02.325Z,23.58
2023-05-11T11:27:41.305Z,25.85
2023-05-11T11:30:18.658Z,22.45
2023-05-11T11:32:48.432Z,24.23
2023-05-11T11:35:40.456Z,22.42
2023-05-11T11:38:08.851Z,27.02
2023-05-11T11:43:18.945Z,16.70
2023-05-11T11:46:02.061Z,18.83
2023-05-11T11:48:33.501Z,17.52
2023-05-11T11:51:07.432Z,15.50
2023-05-11T11:53:37.475Z,16.13
2023-05-11T11:56:05.859Z,16.25
2023-05-11T11:58:41.596Z,14.85
2023-05-11T12:01:25.859Z,16.88
2023-05-11T12:04:04.608Z,15.68
2023-05-11T12:06:39.497Z,20.17
2023-05-11T12:09:07.401Z,15.25
2023-05-11T12:11:34.797Z,17.85
2023-05-11T12:14:02.731Z,19.13
2023-05-11T12:16:29.996Z,19.98
2023-05-11T12:19:01.386Z,19.05
2023-05-11T12:21:31.801Z,22.73
2023-05-11T12:24:03.576Z,21.42
2023-05-11T12:26:31.717Z,22.80
2023-05-11T12:29:13.260Z,23.15
2023-05-11T12:31:41.682Z,22.27
2023-05-11T12:34:15.716Z,21.23
2023-05-11T12:36:44.054Z,21.83
2023-05-11T12:39:24.205Z,22.02
2023-05-11T12:41:53.033Z,21.70
2023-05-11T12:44:21.551Z,18.67
2023-05-11T12:46:49.737Z,15.50
2023-05-11T12:51:52.635Z,14.77
2023-05-11T12:54:31.316Z,13.88
2023-05-11T12:56:58.632Z,13.50
2023-05-11T12:59:25.328Z,14.82
2023-05-11T13:01:52.195Z,17.77
2023-05-11T13:04:27.842Z,18.27
2023-05-11T13:06:54.646Z,16.77
2023-05-11T13:09:25.703Z,15.63
2023-05-11T13:12:07.146Z,14.63
2023-05-11T13:14:34.044Z,18.70
2023-05-11T13:17:00.780Z,18.52
2023-05-11T13:19:29.666Z,15.13
2023-05-11T13:21:57.344Z,17.63
2023-05-11T13:24:25.448Z,12.82
2023-05-11T13:26:53.399Z,13.55
2023-05-11T13:29:20.679Z,15.48
2023-05-11T13:31:52.194Z,13.38
2023-05-11T13:36:46.670Z,17.98
2023-05-11T13:39:13.545Z,16.13
2023-05-11T13:41:40.307Z,16.75
2023-05-11T13:44:07.136Z,19.20
2023-05-11T13:46:33.961Z,24.23
2023-05-11T13:49:00.985Z,21.23
2023-05-11T13:51:27.849Z,23.25
2023-05-11T13:53:54.825Z,22.70
2023-05-11T13:56:22.160Z,19.08
2023-05-11T13:58:49.105Z,20.20
2023-05-11T14:01:16.377Z,21.60
2023-05-11T14:03:43.230Z,21.80
2023-05-11T14:06:10.082Z,21.60
2023-05-11T14:08:36.842Z,23.75
2023-05-11T14:11:03.674Z,25.50
2023-05-11T14:13:30.438Z,21.60
2023-05-11T14:15:57.462Z,26.17
2023-05-11T14:18:25.905Z,23.27
2023-05-11T14:20:53.878Z,24.20
2023-05-11T14:23:20.693Z,19.45
2023-05-11T14:25:47.458Z,20.17
2023-05-11T14:28:14.166Z,18.55
2023-05-11T14:30:41.019Z,20.85
2023-05-11T14:33:07.794Z,21.25
2023-05-11T14:35:34.577Z,21.15
2023-05-11T14:38:02.831Z,18.73
2023-05-11T14:40:29.713Z,17.85
2023-05-11T14:42:56.511Z,14.10
2023-05-11T14:45:23.273Z,15.32
2023-05-11T14:47:50.454Z,14.15
2023-05-11T14:50:17.317Z,15.63
2023-05-11T14:52:44.026Z,15.15
2023-05-11T14:55:10.857Z,16.20
2023-05-11T14:57:37.733Z,15.60
2023-05-11T15:00:04.991Z,15.15
2023-05-11T15:02:31.837Z,13.48
2023-05-11T15:04:58.702Z,15.43
2023-05-11T15:07:25.677Z,13.50
2023-05-11T15:09:52.717Z,12.68
2023-05-11T15:12:19.426Z,10.23
2023-05-11T15:14:46.239Z,11.48
2023-05-11T15:17:12.977Z,11.18
2023-05-11T15:19:39.706Z,13.95
2023-05-11T15:22:06.496Z,10.40
2023-05-11T15:24:33.889Z,10.77
2023-05-11T15:27:00.625Z,9.63
2023-05-11T15:29:27.395Z,11.40
2023-05-11T15:31:54.206Z,12.63
2023-05-11T15:34:21.018Z,9.63
2023-05-11T15:36:49.715Z,11.18
2023-05-11T15:39:17.364Z,12.75
2023-05-11T15:41:44.182Z,13.98
2023-05-11T15:44:10.952Z,11.13
2023-05-11T15:46:38.890Z,10.88
2023-05-11T15:49:06.232Z,10.60
2023-05-11T15:51:33.033Z,9.30
2023-05-11T15:53:59.757Z,11.02
2023-05-11T15:56:27.017Z,10.43
2023-05-11T15:58:53.779Z,11.50
2023-05-11T16:01:21.057Z,9.27
2023-05-11T16:03:47.938Z,9.15
2023-05-11T16:06:14.768Z,9.25
2023-05-11T16:08:41.733Z,8.63
2023-05-11T16:11:08.533Z,9.20
2023-05-11T16:13:35.272Z,10.38
2023-05-11T16:16:02.094Z,10.73
2023-05-11T16:18:28.972Z,10.50
2023-05-11T16:20:56.380Z,9.68
2023-05-11T16:23:25.207Z,9.95
2023-05-11T16:25:52.063Z,11.50
2023-05-11T16:28:18.763Z,12.95
2023-05-11T16:30:45.541Z,10.77
2023-05-11T16:33:12.372Z,12.07
2023-05-11T16:35:39.390Z,12.23
2023-05-11T16:38:06.283Z,9.48
2023-05-11T16:40:33.071Z,10.73
2023-05-11T16:42:59.866Z,8.77
2023-05-11T16:45:26.597Z,7.90
2023-05-11T16:47:53.580Z,10.25
2023-05-11T16:50:20.670Z,8.43
2023-05-11T16:52:48.623Z,7.03
2023-05-11T16:55:16.182Z,6.45
2023-05-11T16:57:44.457Z,7.38
2023-05-11T17:00:12.925Z,6.97
2023-05-11T17:02:40.443Z,7.35
2023-05-11T17:05:08.103Z,7.40
2023-05-11T17:07:35.088Z,8.27
2023-05-11T17:10:01.873Z,7.80
2023-05-11T17:12:32.024Z,5.85
2023-05-11T17:14:58.819Z,6.60
2023-05-11T17:17:25.632Z,6.53
2023-05-11T17:19:52.681Z,5.85
2023-05-11T17:22:19.441Z,5.85
2023-05-11T17:24:46.832Z,5.47
2023-05-11T17:27:13.656Z,4.47
2023-05-11T17:29:43.396Z,5.22
2023-05-11T17:32:10.293Z,5.90
2023-05-11T17:34:37.130Z,4.97
2023-05-11T17:37:04.133Z,9.25
2023-05-11T17:39:30.956Z,5.88
2023-05-11T17:41:57.981Z,6.85
2023-05-11T17:44:24.741Z,6.38
2023-05-11T17:46:52.034Z,7.22
2023-05-11T17:49:18.996Z,8.35
2023-05-11T17:51:47.158Z,9.57
2023-05-11T17:54:14.268Z,9.73
2023-05-11T17:56:41.310Z,11.05
2023-05-11T17:59:08.053Z,12.55
2023-05-11T18:01:34.864Z,11.43
2023-05-11T18:04:02.602Z,12.38
2023-05-11T18:06:29.865Z,11.90
2023-05-11T18:08:58.061Z,15.18
2023-05-11T18:11:25.889Z,14.95
2023-05-11T18:13:52.860Z,11.65
2023-05-11T18:16:19.705Z,12.77
2023-05-11T18:18:46.562Z,14.30
2023-05-11T18:21:13.393Z,15.23
2023-05-11T18:23:40.072Z,16.20
2023-05-11T18:26:07.125Z,17.83
2023-05-11T18:28:33.898Z,14.10
2023-05-11T18:31:00.778Z,15.48
2023-05-11T18:33:27.625Z,15.02
2023-05-11T18:35:54.350Z,15.57
2023-05-11T18:38:21.027Z,13.82
2023-05-11T18:40:47.823Z,14.07
2023-05-11T18:43:14.668Z,15.93
2023-05-11T18:45:41.576Z,14.38
2023-05-11T18:48:08.444Z,13.85
2023-05-11T18:50:35.767Z,16.65
2023-05-11T18:53:03.247Z,14.93
2023-05-11T18:55:35.491Z,14.10
2023-05-11T18:58:07.992Z,16.00
2023-05-11T19:00:37.440Z,17.55
2023-05-11T19:03:04.505Z,16.08
2023-05-11T19:05:31.414Z,16.73
2023-05-11T19:07:58.118Z,15.25
2023-05-11T19:10:24.923Z,15.32
2023-05-11T19:12:51.757Z,13.88
2023-05-11T19:15:18.607Z,19.05
2023-05-11T19:17:45.571Z,17.50
2023-05-11T19:20:12.780Z,15.73
2023-05-11T19:22:39.720Z,14.60
2023-05-11T19:25:07.702Z,17.55
2023-05-11T19:27:34.466Z,14.98
2023-05-11T19:30:01.226Z,14.60
2023-05-11T19:32:28.072Z,15.90
2023-05-11T19:34:55.020Z,15.02
2023-05-11T19:37:22.111Z,15.15
2023-05-11T19:39:49.262Z,16.00
2023-05-11T19:42:17.996Z,15.48
2023-05-11T19:44:46.883Z,14.93
2023-05-11T19:47:13.604Z,15.45
2023-05-11T19:49:40.346Z,13.40
2023-05-11T19:52:07.201Z,14.43
2023-05-11T19:54:34.213Z,14.90
2023-05-11T19:57:01.294Z,13.10
2023-05-11T19:59:32.829Z,16.63
2023-05-11T20:02:00.406Z,16.60
2023-05-11T20:04:28.489Z,21.05
2023-05-11T20:06:55.930Z,17.80
2023-05-11T20:09:23.200Z,13.80
2023-05-11T20:11:49.965Z,19.98
2023-05-11T20:14:17.007Z,18.67
2023-05-11T20:16:43.931Z,22.55
2023-05-11T20:19:10.931Z,21.13
2023-05-11T20:21:37.765Z,22.65
2023-05-11T20:24:04.641Z,20.92
2023-05-11T20:26:31.819Z,21.85
2023-05-11T20:28:58.636Z,19.55
2023-05-11T20:31:27.192Z,22.95
2023-05-11T20:36:23.769Z,22.20
2023-05-11T20:38:53.660Z,23.02
2023-05-11T20:41:22.113Z,22.38
2023-05-11T20:43:48.901Z,22.95
2023-05-11T20:46:15.755Z,22.88
2023-05-11T20:48:45.145Z,22.30
2023-05-11T20:51:14.878Z,21.05
2023-05-11T20:53:41.620Z,23.85
2023-05-11T20:56:10.071Z,27.33
2023-05-11T20:58:36.885Z,29.05
2023-05-11T21:01:03.681Z,23.13
2023-05-11T21:03:30.575Z,21.55
2023-05-11T21:05:57.352Z,22.52
2023-05-11T21:08:24.099Z,25.65
2023-05-11T21:10:50.956Z,24.17
2023-05-11T21:13:17.728Z,25.13
2023-05-11T21:15:44.418Z,23.80
2023-05-11T21:18:11.311Z,21.85
2023-05-11T21:20:38.123Z,22.67
2023-05-11T21:23:04.935Z,23.58
2023-05-11T21:25:31.804Z,22.05
2023-05-11T21:28:00.667Z,21.83
2023-05-11T21:30:28.074Z,20.50
2023-05-11T21:32:54.954Z,22.27
2023-05-11T21:35:21.669Z,23.35
2023-05-11T21:37:50.016Z,21.33
2023-05-11T21:40:17.924Z,22.48
2023-05-11T21:42:45.257Z,22.90
2023-05-11T21:45:12.345Z,20.85
2023-05-11T21:47:39.456Z,21.25
2023-05-11T21:50:08.336Z,19.73
2023-05-11T21:52:35.178Z,20.73
2023-05-11T21:55:01.976Z,19.50
2023-05-11T21:57:29.214Z,20.65
2023-05-11T21:59:56.004Z,20.67
2023-05-11T22:02:23.597Z,21.50
2023-05-11T22:04:50.484Z,23.77
2023-05-11T22:07:17.601Z,21.48
2023-05-11T22:09:44.475Z,22.48
2023-05-11T22:12:11.811Z,21.20
2023-05-11T22:14:38.570Z,19.77
2023-05-11T22:17:05.555Z,20.10
2023-05-11T22:19:32.896Z,21.52
2023-05-11T22:21:59.729Z,19.60
2023-05-11T22:24:27.240Z,22.02
2023-05-11T22:26:54.336Z,17.98
2023-05-11T22:29:22.228Z,19.15
2023-05-11T22:31:49.249Z,18.58
2023-05-11T22:34:16.231Z,17.67
2023-05-11T22:36:43.111Z,18.42
2023-05-11T22:39:11.427Z,16.67
2023-05-11T22:41:38.422Z,16.58
2023-05-11T22:44:05.638Z,15.85
2023-05-11T22:46:32.423Z,18.02
2023-05-11T22:48:59.208Z,16.58
2023-05-11T22:51:25.928Z,17.17
2023-05-11T22:53:52.779Z,14.82
2023-05-11T22:56:19.874Z,16.50
2023-05-11T22:58:46.609Z,16.35
2023-05-11T23:01:14.187Z,16.17
2023-05-11T23:03:41.090Z,12.45
2023-05-11T23:06:07.976Z,15.20
2023-05-11T23:08:34.865Z,13.60
2023-05-11T23:11:01.599Z,13.35
2023-05-11T23:13:28.356Z,13.68
2023-05-11T23:15:55.103Z,13.60
2023-05-11T23:18:22.383Z,15.63
2023-05-11T23:20:54.733Z,15.80
2023-05-11T23:23:21.425Z,14.30
2023-05-11T23:25:48.234Z,17.02
2023-05-11T23:28:15.110Z,15.38
2023-05-11T23:30:42.126Z,13.77
2023-05-11T23:33:09.033Z,15.25
2023-05-11T23:35:35.866Z,17.27
2023-05-11T23:38:02.623Z,15.60
2023-05-11T23:40:29.361Z,16.08
2023-05-11T23:42:56.257Z,14.90
2023-05-11T23:45:25.089Z,16.33
2023-05-11T23:47:52.340Z,16.55
2023-05-11T23:50:19.867Z,14.77
2023-05-11T23:52:46.848Z,14.40
2023-05-11T23:55:13.565Z,13.02
2023-05-11T23:57:41.142Z,16.27
